Time;durP1;ratioP1;P1;durP2;ratioP2;P2;SDS_P1;SDS_P2;PMS_P1;PMS_P2;Temp;Humidity;BMP_temperature;BMP_pressure;BME280_temperature;BME280_humidity;BME280_pressure;Samples;Min_cycle;Max_cycle;Signal;HPM_P1;HPM_P2
2021/05/14 00:00:14;;;;;;;8.63;6.32;;;12.50;99.90;;;;;;5082061;28;20074;-96
2021/05/14 00:14:11;;;;;;;9.20;7.55;;;12.60;99.90;;;;;;5085859;28;20738;-95
2021/05/14 00:16:38;;;;;;;11.95;9.43;;;12.50;99.90;;;;;;5065764;28;20151;-94
2021/05/14 00:19:11;;;;;;;9.80;8.80;;;12.50;99.90;;;;;;5091596;28;20024;-96
2021/05/14 00:28:28;;;;;;;11.00;9.45;;;12.40;99.90;;;;;;5081946;28;20047;-96
2021/05/14 00:30:54;;;;;;;10.10;9.05;;;12.40;99.90;;;;;;5076688;28;20036;-96
2021/05/14 00:36:45;;;;;;;14.13;11.57;;;12.40;99.90;;;;;;5096876;28;20217;-96
2021/05/14 00:39:33;;;;;;;11.55;10.07;;;12.40;99.90;;;;;;5062708;28;20496;-96
2021/05/14 00:44:47;;;;;;;13.80;11.70;;;12.40;99.90;;;;;;5101666;28;20083;-96
2021/05/14 00:47:15;;;;;;;15.23;13.57;;;12.30;99.90;;;;;;5086490;28;20036;-93
2021/05/14 00:52:50;;;;;;;12.68;11.38;;;12.40;99.90;;;;;;5102418;28;20062;-94
2021/05/14 00:55:44;;;;;;;14.40;12.82;;;12.40;99.90;;;;;;5107412;28;20091;-94
2021/05/14 01:04:04;;;;;;;13.07;11.68;;;12.30;99.90;;;;;;5088691;28;20048;-94
2021/05/14 01:06:33;;;;;;;14.43;12.93;;;12.30;99.90;;;;;;5061989;28;20048;-95
2021/05/14 01:09:18;;;;;;;14.88;13.38;;;12.30;99.90;;;;;;5047161;28;20032;-93
2021/05/14 01:12:21;;;;;;;14.00;12.20;;;12.20;99.90;;;;;;5072433;28;20040;-96
2021/05/14 01:14:48;;;;;;;;;;;12.30;99.90;;;;;;5099872;28;20032;-95
2021/05/14 01:20:00;;;;;;;14.55;13.02;;;12.20;99.90;;;;;;5083432;28;20059;-95
2021/05/14 01:22:28;;;;;;;14.55;13.05;;;12.20;99.90;;;;;;5079908;28;20054;-94
2021/05/14 01:30:44;;;;;;;13.77;12.40;;;12.10;99.90;;;;;;5101216;28;20046;-96
2021/05/14 01:33:29;;;;;;;14.30;12.65;;;12.10;99.90;;;;;;5075899;28;20098;-96
2021/05/14 01:35:55;;;;;;;14.15;12.55;;;12.10;99.90;;;;;;5091133;28;20077;-95
2021/05/14 01:38:21;;;;;;;15.38;13.68;;;12.10;99.90;;;;;;5102999;28;20036;-96
2021/05/14 01:41:06;;;;;;;14.63;13.13;;;12.10;99.90;;;;;;5089325;28;20043;-96
2021/05/14 01:43:36;;;;;;;15.73;12.95;;;12.10;99.90;;;;;;5084934;28;20028;-96
2021/05/14 01:46:04;;;;;;;14.30;12.75;;;12.00;99.90;;;;;;5101724;28;20055;-96
2021/05/14 01:51:53;;;;;;;16.87;14.77;;;11.90;99.90;;;;;;5098331;28;20054;-96
2021/05/14 01:54:21;;;;;;;16.40;14.13;;;11.90;99.90;;;;;;5083598;28;20305;-96
2021/05/14 01:59:34;;;;;;;16.38;14.68;;;11.80;99.90;;;;;;5103732;28;20058;-96
2021/05/14 02:02:20;;;;;;;16.52;14.63;;;11.80;99.90;;;;;;5086857;28;20055;-96
2021/05/14 02:07:49;;;;;;;15.63;13.95;;;11.70;99.90;;;;;;5103602;28;20061;-95
2021/05/14 02:13:20;;;;;;;18.42;15.20;;;11.70;99.90;;;;;;5095548;28;20531;-95
2021/05/14 02:21:52;;;;;;;16.02;14.07;;;11.60;99.90;;;;;;5095222;28;20046;-95
2021/05/14 02:24:36;;;;;;;16.40;14.65;;;11.60;99.90;;;;;;5077470;28;20067;-95
2021/05/14 02:30:06;;;;;;;16.70;14.90;;;11.60;99.90;;;;;;5097855;28;20069;-96
2021/05/14 02:32:50;;;;;;;16.13;14.45;;;11.70;99.90;;;;;;5078759;28;20032;-96
2021/05/14 02:35:35;;;;;;;16.42;14.73;;;11.80;99.90;;;;;;5096445;28;20090;-95
2021/05/14 02:38:00;;;;;;;16.77;14.93;;;11.80;99.90;;;;;;5079370;28;20028;-95
2021/05/14 02:40:26;;;;;;;16.13;13.95;;;11.80;99.90;;;;;;5095627;28;20040;-95
2021/05/14 02:42:52;;;;;;;16.23;14.50;;;11.80;99.90;;;;;;5078437;28;20040;-96
2021/05/14 02:45:18;;;;;;;16.35;14.60;;;11.80;99.90;;;;;;5077723;28;20090;-96
2021/05/14 02:48:03;;;;;;;17.42;14.88;;;11.80;99.90;;;;;;5096811;28;20365;-94
2021/05/14 02:50:28;;;;;;;16.08;14.32;;;11.80;99.90;;;;;;5079131;28;20028;-96
2021/05/14 02:53:13;;;;;;;16.27;14.52;;;11.70;99.90;;;;;;5096719;28;20329;-96
2021/05/14 02:55:58;;;;;;;16.17;13.45;;;11.80;99.90;;;;;;5079121;28;20412;-96
2021/05/14 02:58:23;;;;;;;15.75;13.25;;;11.70;99.90;;;;;;5097109;28;20044;-95
2021/05/14 03:00:49;;;;;;;14.23;12.73;;;11.70;99.90;;;;;;5078981;28;20032;-96
2021/05/14 03:03:33;;;;;;;15.35;13.70;;;11.70;99.90;;;;;;5078349;28;20028;-96
2021/05/14 03:06:37;;;;;;;15.30;13.68;;;11.70;99.90;;;;;;5078724;28;20032;-96
2021/05/14 03:09:03;;;;;;;14.30;12.80;;;11.70;99.90;;;;;;5077579;28;20056;-96
2021/05/14 03:11:29;;;;;;;14.52;13.02;;;11.60;99.90;;;;;;5076678;28;20282;-96
2021/05/14 03:14:13;;;;;;;15.88;13.63;;;11.60;99.90;;;;;;5060385;28;20037;-95
2021/05/14 03:16:59;;;;;;;14.73;13.23;;;11.60;99.90;;;;;;5095625;28;20031;-96
2021/05/14 03:22:08;;;;;;;14.77;12.18;;;11.60;99.90;;;;;;5096550;28;20565;-96
2021/05/14 03:24:34;;;;;;;15.35;13.48;;;11.50;99.90;;;;;;5096024;28;20025;-96
2021/05/14 03:27:00;;;;;;;14.60;12.88;;;11.60;99.90;;;;;;5060045;28;20047;-96
2021/05/14 03:29:25;;;;;;;16.13;14.40;;;11.50;99.90;;;;;;5076704;28;20039;-96
2021/05/14 03:37:56;;;;;;;14.85;13.23;;;11.40;99.90;;;;;;5094536;28;20094;-96
2021/05/14 03:40:36;;;;;;;18.83;15.80;;;11.50;99.90;;;;;;5094410;28;20535;-95
2021/05/14 03:43:03;;;;;;;17.15;15.25;;;11.50;99.90;;;;;;5076211;28;20484;-96
2021/05/14 03:48:33;;;;;;;18.10;15.23;;;11.60;99.90;;;;;;5098288;28;20123;-96
2021/05/14 03:50:59;;;;;;;15.38;13.18;;;11.60;99.90;;;;;;5079844;28;20039;-95
2021/05/14 03:54:02;;;;;;;17.17;14.93;;;11.60;99.90;;;;;;5078871;28;20028;-95
2021/05/14 03:59:11;;;;;;;18.15;14.90;;;11.50;99.90;;;;;;5098236;28;20097;-95
2021/05/14 04:04:40;;;;;;;20.30;17.33;;;11.50;99.90;;;;;;5098454;28;20051;-95
2021/05/14 04:07:06;;;;;;;20.00;16.90;;;11.60;99.90;;;;;;5079398;28;20464;-96
2021/05/14 04:10:17;;;;;;;20.17;17.45;;;11.60;99.90;;;;;;5079700;28;20028;-96
2021/05/14 04:15:07;;;;;;;19.17;16.23;;;11.70;99.90;;;;;;5097742;28;20036;-96
2021/05/14 04:17:33;;;;;;;19.80;16.88;;;11.70;99.90;;;;;;5079638;28;20024;-95
2021/05/14 04:23:04;;;;;;;18.80;15.60;;;11.70;99.90;;;;;;5097390;28;20042;-96
2021/05/14 04:25:50;;;;;;;19.63;15.90;;;11.70;99.90;;;;;;5097104;28;20036;-96
2021/05/14 04:31:19;;;;;;;16.02;13.93;;;11.70;99.90;;;;;;5082627;28;20047;-95
2021/05/14 04:34:22;;;;;;;16.67;13.98;;;11.70;99.90;;;;;;5078765;28;20032;-95
2021/05/14 04:36:48;;;;;;;16.13;14.27;;;11.70;99.90;;;;;;5079734;28;20034;-96
2021/05/14 04:39:32;;;;;;;17.00;14.63;;;11.70;99.90;;;;;;5080217;28;20032;-95
2021/05/14 04:45:02;;;;;;;18.00;15.25;;;11.70;99.90;;;;;;5081597;28;20063;-95
2021/05/14 04:47:28;;;;;;;16.48;13.77;;;11.80;99.90;;;;;;5078635;28;20085;-95
2021/05/14 04:49:54;;;;;;;17.58;14.82;;;11.80;99.90;;;;;;5081164;28;20495;-96
2021/05/14 04:52:21;;;;;;;20.23;16.25;;;11.90;99.90;;;;;;5061415;28;20562;-95
2021/05/14 04:55:05;;;;;;;22.15;17.60;;;11.90;99.90;;;;;;5078313;28;20127;-96
2021/05/14 05:04:00;;;;;;;26.50;19.83;;;12.00;99.90;;;;;;5096941;28;20094;-96
2021/05/14 05:06:47;;;;;;;27.50;21.30;;;12.00;99.90;;;;;;5079043;28;20060;-95
2021/05/14 05:09:14;;;;;;;26.70;20.02;;;12.00;99.90;;;;;;5078491;28;20031;-95
2021/05/14 05:11:58;;;;;;;29.35;22.48;;;12.00;99.90;;;;;;5077514;28;20546;-96
2021/05/14 05:17:08;;;;;;;32.70;23.80;;;12.00;99.90;;;;;;5096341;28;20126;-96
2021/05/14 05:19:34;;;;;;;34.38;25.42;;;12.00;99.90;;;;;;5078286;28;20032;-96
2021/05/14 05:22:01;;;;;;;30.30;24.13;;;12.00;99.90;;;;;;5096586;28;20047;-96
2021/05/14 05:24:27;;;;;;;31.30;22.05;;;11.90;99.90;;;;;;5078422;28;20058;-96
2021/05/14 05:29:57;;;;;;;22.77;17.25;;;12.00;99.90;;;;;;5096644;28;20499;-96
2021/05/14 05:37:53;;;;;;;18.40;14.38;;;12.00;99.90;;;;;;5112210;28;20040;-96
2021/05/14 05:40:57;;;;;;;18.65;15.50;;;12.00;99.90;;;;;;5079730;28;20127;-95
2021/05/14 05:44:00;;;;;;;17.58;14.75;;;12.10;99.90;;;;;;5077931;28;20159;-95
2021/05/14 05:46:45;;;;;;;20.43;14.93;;;12.00;99.90;;;;;;5077175;28;20154;-96
2021/05/14 05:49:11;;;;;;;17.83;14.40;;;12.00;99.90;;;;;;5077811;28;20038;-95
2021/05/14 05:55:17;;;;;;;17.83;14.02;;;12.00;99.90;;;;;;5094269;28;20077;-95
2021/05/14 06:09:57;;;;;;;13.93;10.75;;;12.00;99.90;;;;;;5091475;28;19911;-96
2021/05/14 06:12:31;;;;;;;15.55;12.00;;;12.00;99.90;;;;;;5096214;28;20019;-96
2021/05/14 06:15:16;;;;;;;16.35;12.70;;;12.00;99.90;;;;;;5088167;28;20032;-95
2021/05/14 06:21:09;;;;;;;20.90;15.52;;;12.10;99.90;;;;;;5088668;28;20039;-95
2021/05/14 06:23:36;;;;;;;15.52;13.27;;;12.10;99.90;;;;;;5089880;28;20054;-96
2021/05/14 06:26:03;;;;;;;16.98;13.57;;;12.10;99.90;;;;;;5087149;28;20464;-96
2021/05/14 06:28:49;;;;;;;19.02;15.35;;;12.10;99.90;;;;;;5086507;28;20115;-94
2021/05/14 06:31:33;;;;;;;17.67;14.82;;;12.20;99.90;;;;;;5084422;28;20051;-95
2021/05/14 06:33:59;;;;;;;17.67;14.60;;;12.20;99.90;;;;;;5088500;28;20039;-96
2021/05/14 06:39:28;;;;;;;17.85;14.75;;;12.20;99.90;;;;;;5093845;28;20078;-93
2021/05/14 06:41:56;;;;;;;19.90;14.95;;;12.20;99.90;;;;;;5085750;28;20043;-96
2021/05/14 06:47:10;;;;;;;17.80;14.35;;;12.30;99.90;;;;;;5095012;28;20045;-93
2021/05/14 06:49:37;;;;;;;21.27;15.65;;;12.40;99.90;;;;;;5086368;28;20032;-93
2021/05/14 06:52:23;;;;;;;22.45;16.77;;;12.50;99.90;;;;;;5086544;28;20057;-93
2021/05/14 06:54:53;;;;;;;19.50;15.40;;;12.40;99.90;;;;;;5084885;28;20032;-95
2021/05/14 06:57:57;;;;;;;18.67;14.70;;;12.50;99.90;;;;;;5084052;28;20030;-94
2021/05/14 07:03:45;;;;;;;17.52;14.48;;;12.60;99.90;;;;;;5091964;28;20101;-94
2021/05/14 07:06:15;;;;;;;19.55;16.77;;;12.60;99.90;;;;;;5083012;28;20032;-94
2021/05/14 07:08:55;;;;;;;20.27;15.45;;;12.70;99.90;;;;;;5082206;28;20484;-94
2021/05/14 07:11:42;;;;;;;18.17;14.93;;;12.70;99.90;;;;;;5072727;28;20039;-93
2021/05/14 07:16:58;;;;;;;18.98;15.40;;;12.90;99.90;;;;;;5093978;28;20094;-93
2021/05/14 07:19:27;;;;;;;19.58;14.77;;;12.90;99.90;;;;;;5077155;28;20452;-94
2021/05/14 07:22:31;;;;;;;19.80;15.88;;;12.90;99.90;;;;;;5084957;28;20032;-94
2021/05/14 07:24:57;;;;;;;19.35;15.68;;;13.00;99.90;;;;;;5087774;28;20024;-94
2021/05/14 07:27:22;;;;;;;20.85;17.45;;;13.00;99.90;;;;;;5087987;28;20089;-94
2021/05/14 07:30:12;;;;;;;20.45;16.17;;;13.10;99.90;;;;;;5090153;28;20048;-94
2021/05/14 07:32:39;;;;;;;19.95;16.63;;;13.10;99.90;;;;;;5054542;28;20036;-93
2021/05/14 07:35:25;;;;;;;22.15;18.48;;;13.20;99.90;;;;;;5088471;28;20108;-93
2021/05/14 07:38:18;;;;;;;24.10;19.55;;;13.30;99.90;;;;;;5073056;28;20040;-94
2021/05/14 07:40:46;;;;;;;20.17;17.58;;;13.40;99.90;;;;;;5076839;28;20129;-94
2021/05/14 07:43:12;;;;;;;20.73;17.20;;;13.50;99.90;;;;;;5097450;28;20033;-92
2021/05/14 07:48:47;;;;;;;22.58;19.52;;;13.70;99.90;;;;;;5097621;28;20039;-91
2021/05/14 07:51:14;;;;;;;22.50;19.45;;;13.70;99.90;;;;;;5088660;28;20035;-92
2021/05/14 07:53:43;;;;;;;21.55;17.42;;;13.60;99.90;;;;;;5087089;28;20039;-91
2021/05/14 07:56:09;;;;;;;25.95;20.25;;;13.60;99.90;;;;;;5089092;28;20036;-94
2021/05/14 07:59:17;;;;;;;21.05;18.55;;;13.60;99.90;;;;;;5097008;28;20387;-92
2021/05/14 08:01:56;;;;;;;21.92;18.38;;;13.60;99.90;;;;;;5096266;28;20036;-92
2021/05/14 08:04:42;;;;;;;24.23;18.98;;;13.70;99.90;;;;;;5082475;28;20047;-92
2021/05/14 08:07:07;;;;;;;20.33;17.75;;;13.80;99.90;;;;;;5068109;28;20040;-92
2021/05/14 08:09:53;;;;;;;22.83;19.58;;;13.80;99.90;;;;;;5087557;28;20233;-93
2021/05/14 08:15:45;;;;;;;18.73;16.10;;;13.90;99.90;;;;;;5095611;28;20035;-93
2021/05/14 08:18:14;;;;;;;22.42;19.17;;;14.10;99.90;;;;;;5086631;28;20039;-92
2021/05/14 08:20:46;;;;;;;28.33;22.65;;;14.10;99.90;;;;;;5087274;28;20480;-92
2021/05/14 08:23:15;;;;;;;23.33;20.25;;;14.00;99.90;;;;;;5083980;28;20089;-92
2021/05/14 08:25:41;;;;;;;25.40;21.77;;;13.90;99.90;;;;;;5091715;28;20150;-92
2021/05/14 08:28:07;;;;;;;26.25;21.85;;;13.80;99.90;;;;;;5059893;28;20524;-93
2021/05/14 08:34:13;;;;;;;23.40;18.15;;;13.80;99.90;;;;;;5092492;28;20439;-90
2021/05/14 08:36:59;;;;;;;23.92;19.00;;;13.80;99.90;;;;;;5081551;28;20032;-92
2021/05/14 08:48:05;;;;;;;25.25;19.98;;;13.70;99.90;;;;;;5095890;28;20078;-94
2021/05/14 08:50:33;;;;;;;19.70;16.52;;;13.80;99.90;;;;;;5075880;28;20122;-92
2021/05/14 08:53:18;;;;;;;22.13;18.63;;;13.90;99.90;;;;;;5076721;28;20032;-92
2021/05/14 08:55:47;;;;;;;21.30;17.75;;;14.20;99.90;;;;;;5076883;28;20036;-92
2021/05/14 09:01:18;;;;;;;21.63;18.30;;;14.40;99.90;;;;;;5076773;28;20043;-91
2021/05/14 09:10:09;;;;;;;19.23;16.33;;;15.00;99.90;;;;;;5074398;28;20116;-92
2021/05/14 09:12:41;;;;;;;17.13;14.30;;;14.90;99.90;;;;;;5056631;28;20051;-92
2021/05/14 09:18:39;;;;;;;21.90;16.58;;;15.30;99.90;;;;;;5074235;28;20089;-91
2021/05/14 09:21:27;;;;;;;22.05;18.45;;;15.20;99.90;;;;;;5059356;28;20048;-92
2021/05/14 09:23:56;;;;;;;23.13;18.40;;;15.00;99.90;;;;;;5078157;28;20025;-90
2021/05/14 09:26:28;;;;;;;21.00;18.13;;;14.80;99.90;;;;;;5056416;28;20051;-91
2021/05/14 09:28:54;;;;;;;22.75;17.17;;;14.80;99.90;;;;;;5055740;28;20485;-91
2021/05/14 09:34:09;;;;;;;23.73;19.48;;;15.20;99.90;;;;;;5073356;28;20108;-91
2021/05/14 09:36:38;;;;;;;24.20;19.55;;;15.20;99.90;;;;;;5055853;28;20029;-91
2021/05/14 09:39:07;;;;;;;22.48;18.50;;;15.10;99.90;;;;;;5055384;28;20136;-91
2021/05/14 09:41:33;;;;;;;19.48;15.88;;;15.00;99.90;;;;;;5055448;28;20041;-91
2021/05/14 09:49:39;;;;;;;20.23;15.98;;;15.30;99.90;;;;;;5059531;28;20051;-92
2021/05/14 09:58:31;;;;;;;18.73;15.77;;;15.60;99.90;;;;;;5058508;28;20039;-91
2021/05/14 10:01:00;;;;;;;24.58;17.88;;;15.70;99.90;;;;;;5055791;28;20076;-91
2021/05/14 10:03:31;;;;;;;21.27;16.38;;;15.70;99.90;;;;;;5056452;28;20100;-90
2021/05/14 10:06:16;;;;;;;24.33;18.73;;;15.80;99.90;;;;;;5073332;28;20077;-90
2021/05/14 10:11:45;;;;;;;22.17;18.10;;;16.30;99.90;;;;;;5094892;28;20184;-90
2021/05/14 10:17:19;;;;;;;19.45;16.25;;;16.60;99.90;;;;;;5093475;28;20123;-91
2021/05/14 10:19:48;;;;;;;19.45;15.75;;;16.80;99.90;;;;;;5075821;28;20032;-90
2021/05/14 10:22:15;;;;;;;24.08;21.05;;;17.50;99.90;;;;;;5075502;28;20133;-88
2021/05/14 10:25:00;;;;;;;20.58;17.65;;;17.80;99.90;;;;;;5093072;28;20036;-89
2021/05/14 10:27:40;;;;;;;25.15;20.27;;;17.70;99.90;;;;;;5075561;28;20152;-90
2021/05/14 10:30:25;;;;;;;20.08;17.70;;;18.10;99.90;;;;;;5075500;28;20089;-89
2021/05/14 10:33:10;;;;;;;18.65;15.55;;;18.20;99.90;;;;;;5075432;28;20032;-89
2021/05/14 10:35:54;;;;;;;15.18;13.27;;;18.40;99.90;;;;;;5075615;28;20039;-90
2021/05/14 10:38:48;;;;;;;17.77;15.07;;;18.60;99.90;;;;;;5084347;28;20032;-90
2021/05/14 10:44:49;;;;;;;17.80;15.20;;;18.80;99.90;;;;;;5073342;28;20125;-91
2021/05/14 10:47:40;;;;;;;13.77;11.73;;;19.30;99.90;;;;;;5055226;28;20080;-91
2021/05/14 10:50:15;;;;;;;12.85;10.40;;;19.70;99.90;;;;;;5054230;28;20530;-89
2021/05/14 10:56:10;;;;;;;12.27;10.93;;;20.80;98.40;;;;;;5041595;28;20404;-89
2021/05/14 10:59:13;;;;;;;12.20;10.90;;;21.40;97.70;;;;;;5060887;28;20036;-89
2021/05/14 11:02:19;;;;;;;10.02;8.48;;;21.60;96.20;;;;;;5076971;28;20101;-90
2021/05/14 11:11:39;;;;;;;10.32;8.32;;;22.20;94.70;;;;;;5097419;28;20515;-89
2021/05/14 11:14:16;;;;;;;9.93;8.30;;;22.30;94.40;;;;;;5079451;28;20043;-90
2021/05/14 11:17:01;;;;;;;8.95;7.80;;;22.60;94.00;;;;;;5078974;28;20060;-88
2021/05/14 11:22:37;;;;;;;8.13;7.32;;;22.80;93.10;;;;;;5097006;28;20071;-89
2021/05/14 11:25:14;;;;;;;6.65;5.65;;;23.10;92.80;;;;;;5097155;28;20426;-89
2021/05/14 11:27:51;;;;;;;7.47;6.10;;;23.60;92.60;;;;;;5078938;28;20039;-89
2021/05/14 11:30:22;;;;;;;6.93;5.40;;;23.60;91.90;;;;;;5078604;28;20032;-89
2021/05/14 11:33:27;;;;;;;8.75;6.13;;;23.10;91.70;;;;;;5070657;28;20081;-89
2021/05/14 11:36:16;;;;;;;6.40;5.03;;;22.50;91.40;;;;;;5073745;28;20424;-88
2021/05/14 11:38:51;;;;;;;6.43;4.65;;;22.80;92.00;;;;;;5069387;28;20141;-86
2021/05/14 11:41:55;;;;;;;5.85;4.57;;;23.80;91.00;;;;;;5078201;28;20067;-89
2021/05/14 11:45:02;;;;;;;5.47;4.70;;;24.30;90.50;;;;;;5058188;28;20040;-88
2021/05/14 11:47:29;;;;;;;5.07;4.20;;;24.50;88.50;;;;;;5057231;28;20049;-87
2021/05/14 11:50:14;;;;;;;5.40;4.00;;;24.20;86.80;;;;;;5057188;28;20039;-88
2021/05/14 11:52:41;;;;;;;7.43;4.30;;;23.40;88.40;;;;;;5063003;28;20041;-87
2021/05/14 11:55:28;;;;;;;6.30;4.45;;;22.40;89.20;;;;;;5086946;28;20040;-89
2021/05/14 12:03:56;;;;;;;4.13;3.63;;;22.00;90.00;;;;;;5088213;28;20039;-88
2021/05/14 12:09:57;;;;;;;4.68;3.13;;;21.20;90.80;;;;;;5092319;28;20040;-88
2021/05/14 12:15:21;;;;;;;4.05;2.97;;;21.00;90.70;;;;;;5079019;28;20133;-87
2021/05/14 12:18:10;;;;;;;4.57;3.50;;;21.10;91.40;;;;;;5079663;28;20165;-86
2021/05/14 12:20:57;;;;;;;5.90;3.15;;;21.20;90.60;;;;;;5081213;28;20040;-90
2021/05/14 12:23:25;;;;;;;4.68;3.17;;;21.60;90.20;;;;;;5075156;28;20032;-88
2021/05/14 12:26:15;;;;;;;3.85;3.45;;;22.30;90.30;;;;;;5075970;28;20036;-88
2021/05/14 12:28:47;;;;;;;4.63;2.90;;;23.10;89.30;;;;;;5091637;28;20047;-86
2021/05/14 12:31:48;;;;;;;5.47;3.00;;;23.10;88.40;;;;;;5059510;28;20127;-88
2021/05/14 12:34:16;;;;;;;3.53;2.70;;;22.70;87.70;;;;;;5055897;28;20094;-88
2021/05/14 12:37:02;;;;;;;4.13;3.03;;;22.80;89.10;;;;;;5045663;28;20044;-88
2021/05/14 12:39:49;;;;;;;3.92;3.38;;;23.40;88.00;;;;;;5071262;28;20032;-88
2021/05/14 12:42:46;;;;;;;4.25;3.08;;;23.20;86.60;;;;;;5074504;28;20533;-87
2021/05/14 12:45:13;;;;;;;3.53;2.83;;;22.80;83.40;;;;;;5072521;28;20059;-88
2021/05/14 12:47:57;;;;;;;4.50;2.33;;;22.70;84.30;;;;;;5074537;28;20060;-86
2021/05/14 12:53:29;;;;;;;3.95;2.60;;;22.60;83.90;;;;;;5092645;28;20085;-88
2021/05/14 12:55:55;;;;;;;3.40;2.20;;;22.40;84.00;;;;;;5073080;28;20032;-88
2021/05/14 12:58:21;;;;;;;4.18;2.63;;;22.40;84.40;;;;;;5091550;28;20032;-85
2021/05/14 13:00:47;;;;;;;3.80;2.08;;;22.70;82.90;;;;;;5088820;28;20131;-85
2021/05/14 13:03:26;;;;;;;2.90;2.00;;;23.10;83.10;;;;;;5071678;28;20035;-86
2021/05/14 13:06:13;;;;;;;4.10;2.53;;;23.60;83.10;;;;;;5074303;28;20081;-85
2021/05/14 13:17:32;;;;;;;3.50;2.50;;;25.20;78.20;;;;;;5090104;28;20579;-85
2021/05/14 13:23:01;;;;;;;3.47;2.28;;;25.60;77.00;;;;;;5089162;28;20587;-85
2021/05/14 13:25:46;;;;;;;3.22;2.00;;;25.80;76.50;;;;;;5089844;28;20099;-86
2021/05/14 13:28:13;;;;;;;3.40;2.10;;;26.10;76.10;;;;;;5071066;28;20809;-87
2021/05/14 13:36:45;;;;;;;1.90;1.42;;;26.00;70.30;;;;;;5089644;28;20043;-86
2021/05/14 13:39:30;;;;;;;2.80;2.00;;;26.00;71.10;;;;;;5070888;28;20040;-87
2021/05/14 13:44:42;;;;;;;3.22;2.00;;;25.50;70.10;;;;;;5077242;28;20535;-86
2021/05/14 13:47:09;;;;;;;4.03;2.45;;;24.90;69.70;;;;;;5066643;28;20056;-86
2021/05/14 13:49:35;;;;;;;2.95;1.60;;;24.40;69.20;;;;;;5071263;28;20036;-87
2021/05/14 13:55:08;;;;;;;3.60;2.17;;;23.20;72.30;;;;;;5088354;28;20503;-86
2021/05/14 13:57:35;;;;;;;2.85;1.52;;;22.60;71.40;;;;;;5070534;28;20039;-86
2021/05/14 14:00:20;;;;;;;2.35;1.60;;;22.20;71.70;;;;;;5070235;28;20123;-86
2021/05/14 14:02:46;;;;;;;3.15;1.70;;;22.00;69.90;;;;;;5069372;28;20039;-85
2021/05/14 14:05:12;;;;;;;3.08;2.03;;;21.70;74.70;;;;;;5070236;28;20784;-84
2021/05/14 14:07:56;;;;;;;3.22;2.10;;;21.60;77.60;;;;;;5070730;28;20145;-85
2021/05/14 14:10:24;;;;;;;2.97;1.70;;;21.40;76.60;;;;;;5087842;28;20491;-87
2021/05/14 14:12:51;;;;;;;4.07;1.70;;;21.00;74.80;;;;;;5070110;28;20082;-85
2021/05/14 14:15:18;;;;;;;3.75;1.90;;;21.10;75.90;;;;;;5069958;28;20039;-87
2021/05/14 14:20:28;;;;;;;2.95;1.88;;;21.00;74.50;;;;;;5088116;28;20051;-86
2021/05/14 14:25:57;;;;;;;3.30;2.25;;;20.80;75.00;;;;;;5085886;28;20062;-85
2021/05/14 14:34:11;;;;;;;3.88;1.45;;;20.80;74.70;;;;;;5084975;28;20539;-86
2021/05/14 14:36:56;;;;;;;5.97;2.15;;;20.80;75.20;;;;;;5068950;28;20043;-86
2021/05/14 14:42:07;;;;;;;2.58;1.65;;;21.10;73.30;;;;;;5087075;28;20083;-85
2021/05/14 14:44:33;;;;;;;3.83;2.30;;;21.30;75.20;;;;;;5069481;28;20089;-86
2021/05/14 14:47:02;;;;;;;3.30;2.28;;;21.50;74.70;;;;;;5068693;28;20063;-87
2021/05/14 14:49:29;;;;;;;4.63;2.45;;;21.60;75.00;;;;;;5086803;28;20040;-85
2021/05/14 14:51:55;;;;;;;2.95;2.00;;;21.80;74.40;;;;;;5086444;28;20040;-86
2021/05/14 14:54:40;;;;;;;3.15;1.70;;;21.70;73.20;;;;;;5069902;28;20114;-87
2021/05/14 14:57:26;;;;;;;2.65;1.63;;;21.90;72.90;;;;;;5052435;28;20368;-86
2021/05/14 15:02:56;;;;;;;1.80;1.10;;;22.20;73.30;;;;;;5062524;28;20050;-86
2021/05/14 15:05:41;;;;;;;3.85;1.88;;;22.50;72.40;;;;;;5047968;28;20029;-86
2021/05/14 15:08:11;;;;;;;2.83;1.60;;;22.50;70.60;;;;;;5067496;28;20086;-86
2021/05/14 15:13:40;;;;;;;4.53;1.90;;;22.50;74.20;;;;;;5087136;28;20466;-86
2021/05/14 15:16:25;;;;;;;4.22;2.70;;;22.40;73.10;;;;;;5082320;28;20044;-85
2021/05/14 15:18:52;;;;;;;2.90;2.20;;;22.30;73.00;;;;;;5072889;28;20038;-85
2021/05/14 15:21:55;;;;;;;2.67;1.90;;;22.10;73.60;;;;;;5069284;28;20040;-85
2021/05/14 15:27:08;;;;;;;2.30;1.10;;;22.10;71.70;;;;;;5084842;28;20070;-86
2021/05/14 15:29:34;;;;;;;2.38;1.40;;;22.30;71.40;;;;;;5068179;28;20032;-86
2021/05/14 15:32:00;;;;;;;2.50;1.40;;;22.30;70.00;;;;;;5083231;28;20024;-85
2021/05/14 15:37:48;;;;;;;2.55;1.30;;;21.90;71.40;;;;;;5084427;28;20079;-85
2021/05/14 15:40:15;;;;;;;;;;;21.60;71.40;;;;;;5065261;28;20119;-84
2021/05/14 15:46:04;;;;;;;3.50;1.05;;;20.70;71.70;;;;;;5088597;28;20039;-85
2021/05/14 15:48:34;;;;;;;2.92;1.30;;;20.40;72.50;;;;;;5071208;28;20071;-84
2021/05/14 15:51:00;;;;;;;2.30;1.20;;;20.10;73.60;;;;;;5089737;28;20024;-85
2021/05/14 15:59:18;;;;;;;3.05;1.70;;;19.90;75.40;;;;;;5089842;28;20099;-84
2021/05/14 16:01:47;;;;;;;2.17;1.30;;;19.80;75.60;;;;;;5082939;28;20049;-85
2021/05/14 16:04:34;;;;;;;2.03;1.25;;;19.80;75.70;;;;;;5071371;28;20036;-85
2021/05/14 16:07:00;;;;;;;2.63;1.30;;;19.70;76.00;;;;;;5089997;28;20042;-85
2021/05/14 16:09:27;;;;;;;2.55;1.40;;;19.70;76.50;;;;;;5070833;28;20023;-84
2021/05/14 16:11:53;;;;;;;2.92;1.45;;;19.70;76.00;;;;;;5063354;28;20464;-85
2021/05/14 16:14:19;;;;;;;4.55;2.35;;;19.60;75.10;;;;;;5088916;28;20042;-84
2021/05/14 16:16:55;;;;;;;3.67;2.30;;;19.40;74.50;;;;;;5070708;28;20036;-85
2021/05/14 16:22:08;;;;;;;3.35;1.90;;;19.10;75.20;;;;;;5089174;28;20519;-86
2021/05/14 16:24:37;;;;;;;3.80;2.00;;;19.00;76.50;;;;;;5071441;28;20549;-85
2021/05/14 16:30:26;;;;;;;3.40;1.58;;;18.90;77.00;;;;;;5087948;28;20066;-86
2021/05/14 16:32:55;;;;;;;3.25;1.45;;;18.80;77.90;;;;;;5053305;28;20438;-85
2021/05/14 16:35:39;;;;;;;3.40;1.75;;;18.80;78.20;;;;;;5069927;28;20583;-86
2021/05/14 16:38:24;;;;;;;2.60;1.52;;;18.80;78.20;;;;;;5070252;28;20462;-86
2021/05/14 16:41:09;;;;;;;3.42;1.17;;;18.80;78.00;;;;;;5086223;28;20522;-85
2021/05/14 16:43:34;;;;;;;3.53;1.77;;;18.70;77.80;;;;;;5086728;28;20038;-86
2021/05/14 16:46:05;;;;;;;2.17;1.10;;;18.60;78.70;;;;;;5087754;28;20052;-85
2021/05/14 16:48:31;;;;;;;3.40;1.17;;;18.60;79.00;;;;;;5038298;28;20044;-86
2021/05/14 16:51:18;;;;;;;4.45;2.10;;;18.60;79.20;;;;;;5069558;28;20129;-85
2021/05/14 16:57:06;;;;;;;;;;;18.50;79.80;;;;;;5071510;28;20081;-85
2021/05/14 17:02:19;;;;;;;4.15;1.75;;;18.20;81.00;;;;;;5087691;28;20086;-85
2021/05/14 17:04:45;;;;;;;4.25;2.28;;;18.10;81.30;;;;;;5051323;28;20086;-86
2021/05/14 17:16:24;;;;;;;6.72;3.67;;;18.20;85.00;;;;;;5085807;28;20039;-86
2021/05/14 17:21:59;;;;;;;7.88;4.30;;;18.20;86.90;;;;;;5069683;28;20047;-84
2021/05/14 17:24:28;;;;;;;5.40;3.55;;;17.90;88.60;;;;;;5084951;28;20032;-85
2021/05/14 17:26:55;;;;;;;5.68;3.92;;;17.60;89.70;;;;;;5054352;28;20139;-85
2021/05/14 17:29:23;;;;;;;6.07;4.00;;;17.60;90.20;;;;;;5070244;28;20048;-84
2021/05/14 17:34:52;;;;;;;5.72;3.65;;;17.40;90.70;;;;;;5086947;28;20526;-84
2021/05/14 17:37:21;;;;;;;6.40;3.83;;;17.30;91.10;;;;;;5064237;28;20043;-86
2021/05/14 17:46:00;;;;;;;5.18;3.20;;;16.90;91.90;;;;;;5059081;28;20114;-85
2021/05/14 17:49:03;;;;;;;4.65;3.05;;;16.70;92.20;;;;;;5067475;28;20040;-85
2021/05/14 17:51:49;;;;;;;5.65;3.72;;;16.50;92.50;;;;;;5085301;28;20039;-85
2021/05/14 17:54:34;;;;;;;5.50;3.70;;;16.40;92.80;;;;;;5085686;28;20110;-85
2021/05/14 17:57:24;;;;;;;5.47;3.53;;;16.20;93.00;;;;;;5049215;28;20230;-85
2021/05/14 17:59:53;;;;;;;4.90;3.47;;;16.10;93.30;;;;;;5084782;28;20040;-85
2021/05/14 18:02:23;;;;;;;7.90;5.00;;;16.00;93.60;;;;;;5033218;28;20473;-84
2021/05/14 18:04:55;;;;;;;6.35;4.65;;;16.00;93.80;;;;;;5050982;28;20237;-84
2021/05/14 18:07:42;;;;;;;6.47;3.75;;;15.90;94.10;;;;;;5084372;28;20476;-84
2021/05/14 18:13:16;;;;;;;5.88;3.67;;;15.80;94.50;;;;;;5081178;28;20075;-84
2021/05/14 18:16:00;;;;;;;5.53;3.08;;;15.70;94.70;;;;;;5069539;28;20028;-84
2021/05/14 18:19:33;;;;;;;5.90;3.75;;;15.60;94.80;;;;;;5069043;28;20036;-84
2021/05/14 18:22:08;;;;;;;4.07;2.90;;;15.60;95.10;;;;;;5086726;28;20036;-85
2021/05/14 18:27:20;;;;;;;4.55;3.22;;;15.40;95.60;;;;;;5086895;28;20123;-85
2021/05/14 18:29:49;;;;;;;5.18;3.28;;;15.30;95.80;;;;;;5046743;28;20459;-84
2021/05/14 18:32:40;;;;;;;5.18;3.33;;;15.30;96.00;;;;;;5067929;28;20134;-86
2021/05/14 18:35:31;;;;;;;5.13;3.30;;;15.20;96.20;;;;;;5067704;28;20155;-85
2021/05/14 18:38:17;;;;;;;4.43;3.22;;;15.20;96.40;;;;;;5057225;28;20101;-86